Armstrong, Illinois
Current Conditions -  °F | °C
As of 10:10 AM on Monday 24 Nov 2014 (Local Time) from KTIP Reporting Station
Light Snow Light Snow  
Wind Chill: 24°   Ceiling: 1100
Heat Index: 36°   Visibility: 3mi
Dew Point: 33°   Wind: 24mph
Humidity: 89%   Direction: 250°WSW
Pressure: 29.48"   Gusts: 35mph
Location:  40.31°N, 87.88°W
Report Text: KTIP 241610Z AUTO 25021G30KT 3SM -SN OVC011 02/01 A2948 RMK AO2 T00230007
Loading
Personal Weather Stations






























Interactive Weather Map New forecast layout! Learn more

10-Day Weather Forecast

Advertisements
Track Severe Weather on mobile